sensor_id;sensor_type;location;lat;lon;timestamp;pressure;altitude;pressure_sealevel;temperature;humidity
76598;BME280;65486;53.144;18.134;2024-02-28T00:00:56;101170.98;;;5.71;100.00
76598;BME280;65486;53.144;18.134;2024-02-28T00:03:42;101168.49;;;5.70;100.00
76598;BME280;65486;53.144;18.134;2024-02-28T00:06:10;101168.02;;;5.68;100.00
76598;BME280;65486;53.144;18.134;2024-02-28T00:08:37;101167.13;;;5.68;100.00
76598;BME280;65486;53.144;18.134;2024-02-28T00:11:06;101164.18;;;5.68;100.00
76598;BME280;65486;53.144;18.134;2024-02-28T00:13:35;101162.79;;;5.68;100.00
76598;BME280;65486;53.144;18.134;2024-02-28T00:16:02;101156.80;;;5.66;100.00
76598;BME280;65486;53.144;18.134;2024-02-28T00:18:31;101153.73;;;5.64;100.00
76598;BME280;65486;53.144;18.134;2024-02-28T00:20:57;101154.11;;;5.61;100.00
76598;BME280;65486;53.144;18.134;2024-02-28T00:23:27;101158.23;;;5.58;100.00
76598;BME280;65486;53.144;18.134;2024-02-28T00:25:57;101162.27;;;5.55;100.00
76598;BME280;65486;53.144;18.134;2024-02-28T00:28:26;101174.52;;;5.53;100.00
76598;BME280;65486;53.144;18.134;2024-02-28T00:30:54;101173.83;;;5.52;100.00
76598;BME280;65486;53.144;18.134;2024-02-28T00:33:24;101177.85;;;5.50;100.00
76598;BME280;65486;53.144;18.134;2024-02-28T00:35:53;101179.30;;;5.50;100.00
76598;BME280;65486;53.144;18.134;2024-02-28T00:38:20;101179.79;;;5.49;100.00
76598;BME280;65486;53.144;18.134;2024-02-28T00:40:52;101184.58;;;5.49;100.00
76598;BME280;65486;53.144;18.134;2024-02-28T00:43:22;101180.91;;;5.49;100.00
76598;BME280;65486;53.144;18.134;2024-02-28T00:45:49;101182.51;;;5.48;100.00
76598;BME280;65486;53.144;18.134;2024-02-28T00:48:16;101183.31;;;5.48;100.00
76598;BME280;65486;53.144;18.134;2024-02-28T00:50:43;101184.70;;;5.49;100.00
76598;BME280;65486;53.144;18.134;2024-02-28T00:53:11;101187.67;;;5.47;100.00
76598;BME280;65486;53.144;18.134;2024-02-28T00:55:38;101193.48;;;5.47;100.00
76598;BME280;65486;53.144;18.134;2024-02-28T00:58:06;101187.84;;;5.47;100.00
76598;BME280;65486;53.144;18.134;2024-02-28T01:00:32;101182.85;;;5.46;100.00
76598;BME280;65486;53.144;18.134;2024-02-28T01:03:02;101182.74;;;5.47;100.00
76598;BME280;65486;53.144;18.134;2024-02-28T01:05:30;101178.77;;;5.47;100.00
76598;BME280;65486;53.144;18.134;2024-02-28T01:07:58;101174.98;;;5.48;100.00
76598;BME280;65486;53.144;18.134;2024-02-28T01:10:24;101170.90;;;5.48;100.00
76598;BME280;65486;53.144;18.134;2024-02-28T01:12:51;101165.09;;;5.48;100.00
76598;BME280;65486;53.144;18.134;2024-02-28T01:15:22;101167.91;;;5.48;100.00
76598;BME280;65486;53.144;18.134;2024-02-28T01:17:48;101160.52;;;5.47;100.00
76598;BME280;65486;53.144;18.134;2024-02-28T01:20:16;101157.68;;;5.46;100.00
76598;BME280;65486;53.144;18.134;2024-02-28T01:22:42;101156.11;;;5.46;100.00
76598;BME280;65486;53.144;18.134;2024-02-28T01:25:09;101139.30;;;5.32;100.00
76598;BME280;65486;53.144;18.134;2024-02-28T01:27:36;101156.58;;;5.43;100.00
76598;BME280;65486;53.144;18.134;2024-02-28T01:30:02;101153.55;;;5.40;100.00
76598;BME280;65486;53.144;18.134;2024-02-28T01:32:31;101157.27;;;5.38;100.00
76598;BME280;65486;53.144;18.134;2024-02-28T01:35:01;101160.38;;;5.38;100.00
76598;BME280;65486;53.144;18.134;2024-02-28T01:37:31;101169.64;;;5.38;100.00
76598;BME280;65486;53.144;18.134;2024-02-28T01:40:04;101170.84;;;5.37;100.00
76598;BME280;65486;53.144;18.134;2024-02-28T01:42:32;101167.45;;;5.36;100.00
76598;BME280;65486;53.144;18.134;2024-02-28T01:44:59;101174.60;;;5.34;100.00
76598;BME280;65486;53.144;18.134;2024-02-28T01:47:27;101177.45;;;5.33;100.00
76598;BME280;65486;53.144;18.134;2024-02-28T01:49:57;101177.73;;;5.31;100.00
76598;BME280;65486;53.144;18.134;2024-02-28T01:52:31;101179.11;;;5.29;100.00
76598;BME280;65486;53.144;18.134;2024-02-28T01:55:00;101182.56;;;5.29;100.00
76598;BME280;65486;53.144;18.134;2024-02-28T01:57:49;101180.60;;;5.28;100.00
76598;BME280;65486;53.144;18.134;2024-02-28T02:00:19;101182.13;;;5.28;100.00
76598;BME280;65486;53.144;18.134;2024-02-28T02:02:46;101187.35;;;5.28;100.00
76598;BME280;65486;53.144;18.134;2024-02-28T02:05:13;101187.95;;;5.29;100.00
76598;BME280;65486;53.144;18.134;2024-02-28T02:07:43;101186.25;;;5.32;100.00
76598;BME280;65486;53.144;18.134;2024-02-28T02:10:09;101190.02;;;5.32;100.00
76598;BME280;65486;53.144;18.134;2024-02-28T02:12:38;101191.52;;;5.32;100.00
76598;BME280;65486;53.144;18.134;2024-02-28T02:15:05;101189.55;;;5.33;100.00
76598;BME280;65486;53.144;18.134;2024-02-28T02:17:34;101186.95;;;5.33;100.00
76598;BME280;65486;53.144;18.134;2024-02-28T02:20:03;101184.39;;;5.33;100.00
76598;BME280;65486;53.144;18.134;2024-02-28T02:22:38;101185.33;;;5.35;100.00
76598;BME280;65486;53.144;18.134;2024-02-28T02:25:05;101178.91;;;5.35;100.00
76598;BME280;65486;53.144;18.134;2024-02-28T02:27:37;101177.88;;;5.34;100.00
76598;BME280;65486;53.144;18.134;2024-02-28T02:30:05;101182.45;;;5.33;100.00
76598;BME280;65486;53.144;18.134;2024-02-28T02:32:33;101181.19;;;5.33;100.00
76598;BME280;65486;53.144;18.134;2024-02-28T02:35:00;101179.34;;;5.33;100.00
76598;BME280;65486;53.144;18.134;2024-02-28T02:37:28;101179.34;;;5.33;100.00
76598;BME280;65486;53.144;18.134;2024-02-28T02:39:54;101180.00;;;5.32;100.00
76598;BME280;65486;53.144;18.134;2024-02-28T02:42:24;101179.34;;;5.31;100.00
76598;BME280;65486;53.144;18.134;2024-02-28T02:44:51;101179.41;;;5.31;100.00
76598;BME280;65486;53.144;18.134;2024-02-28T02:47:17;101175.75;;;5.31;100.00
76598;BME280;65486;53.144;18.134;2024-02-28T02:49:43;101173.91;;;5.31;100.00
76598;BME280;65486;53.144;18.134;2024-02-28T02:52:10;101173.15;;;5.30;100.00
76598;BME280;65486;53.144;18.134;2024-02-28T02:54:38;101174.34;;;5.28;100.00
76598;BME280;65486;53.144;18.134;2024-02-28T02:57:06;101171.88;;;5.25;100.00
76598;BME280;65486;53.144;18.134;2024-02-28T02:59:33;101148.91;;;5.14;100.00
76598;BME280;65486;53.144;18.134;2024-02-28T03:01:59;101161.93;;;5.24;100.00
76598;BME280;65486;53.144;18.134;2024-02-28T03:04:26;101158.09;;;5.23;100.00
76598;BME280;65486;53.144;18.134;2024-02-28T03:06:53;101155.74;;;5.21;100.00
76598;BME280;65486;53.144;18.134;2024-02-28T03:09:23;101154.11;;;5.20;100.00
76598;BME280;65486;53.144;18.134;2024-02-28T03:11:51;101157.99;;;5.19;100.00
76598;BME280;65486;53.144;18.134;2024-02-28T03:14:17;101157.89;;;5.17;100.00
76598;BME280;65486;53.144;18.134;2024-02-28T03:16:45;101158.16;;;5.14;100.00
76598;BME280;65486;53.144;18.134;2024-02-28T03:19:12;101159.32;;;5.09;100.00
76598;BME280;65486;53.144;18.134;2024-02-28T03:21:39;101164.68;;;5.11;100.00
76598;BME280;65486;53.144;18.134;2024-02-28T03:24:05;101165.52;;;5.12;100.00
76598;BME280;65486;53.144;18.134;2024-02-28T03:26:34;101164.88;;;5.11;100.00
76598;BME280;65486;53.144;18.134;2024-02-28T03:29:01;101167.38;;;5.10;100.00
76598;BME280;65486;53.144;18.134;2024-02-28T03:31:32;101167.65;;;5.10;100.00
76598;BME280;65486;53.144;18.134;2024-02-28T03:33:59;101172.30;;;5.10;100.00
76598;BME280;65486;53.144;18.134;2024-02-28T03:36:28;101167.95;;;5.11;100.00
76598;BME280;65486;53.144;18.134;2024-02-28T03:38:55;101162.09;;;5.12;100.00
76598;BME280;65486;53.144;18.134;2024-02-28T03:41:22;101163.34;;;5.12;100.00
76598;BME280;65486;53.144;18.134;2024-02-28T03:43:49;101165.28;;;5.13;100.00
76598;BME280;65486;53.144;18.134;2024-02-28T03:46:17;101166.55;;;5.13;100.00
76598;BME280;65486;53.144;18.134;2024-02-28T03:48:47;101167.42;;;5.13;100.00
76598;BME280;65486;53.144;18.134;2024-02-28T03:51:13;101162.04;;;5.12;100.00
76598;BME280;65486;53.144;18.134;2024-02-28T03:53:42;101162.52;;;5.11;100.00
76598;BME280;65486;53.144;18.134;2024-02-28T03:56:08;101164.38;;;5.11;100.00
76598;BME280;65486;53.144;18.134;2024-02-28T03:58:37;101165.81;;;5.11;100.00
76598;BME280;65486;53.144;18.134;2024-02-28T04:01:07;101166.05;;;5.11;100.00
76598;BME280;65486;53.144;18.134;2024-02-28T04:03:35;101166.43;;;5.09;100.00
76598;BME280;65486;53.144;18.134;2024-02-28T04:06:05;101165.84;;;5.09;100.00
76598;BME280;65486;53.144;18.134;2024-02-28T04:08:32;101165.88;;;5.09;100.00
76598;BME280;65486;53.144;18.134;2024-02-28T04:10:58;101171.04;;;5.10;100.00
76598;BME280;65486;53.144;18.134;2024-02-28T04:13:24;101169.90;;;5.12;100.00
76598;BME280;65486;53.144;18.134;2024-02-28T04:15:51;101168.68;;;5.12;100.00
76598;BME280;65486;53.144;18.134;2024-02-28T04:18:23;101164.95;;;5.12;100.00
76598;BME280;65486;53.144;18.134;2024-02-28T04:20:54;101157.55;;;5.13;100.00
76598;BME280;65486;53.144;18.134;2024-02-28T04:23:23;101160.41;;;5.13;100.00
76598;BME280;65486;53.144;18.134;2024-02-28T04:25:54;101165.92;;;5.13;100.00
76598;BME280;65486;53.144;18.134;2024-02-28T04:28:21;101164.61;;;5.12;100.00
76598;BME280;65486;53.144;18.134;2024-02-28T04:30:48;101168.85;;;5.10;100.00
76598;BME280;65486;53.144;18.134;2024-02-28T04:33:15;101170.09;;;5.09;100.00
76598;BME280;65486;53.144;18.134;2024-02-28T04:35:43;101171.73;;;5.07;100.00
76598;BME280;65486;53.144;18.134;2024-02-28T04:38:10;101170.61;;;5.06;100.00
76598;BME280;65486;53.144;18.134;2024-02-28T04:40:37;101173.04;;;5.07;100.00
76598;BME280;65486;53.144;18.134;2024-02-28T04:43:03;101171.20;;;5.06;100.00
76598;BME280;65486;53.144;18.134;2024-02-28T04:45:30;101172.73;;;5.05;100.00
76598;BME280;65486;53.144;18.134;2024-02-28T04:47:56;101168.12;;;5.04;100.00
76598;BME280;65486;53.144;18.134;2024-02-28T04:50:24;101168.91;;;5.03;100.00
76598;BME280;65486;53.144;18.134;2024-02-28T04:52:50;101174.11;;;5.03;100.00
76598;BME280;65486;53.144;18.134;2024-02-28T04:55:18;101175.36;;;5.03;100.00
76598;BME280;65486;53.144;18.134;2024-02-28T04:57:44;101177.23;;;5.02;100.00
76598;BME280;65486;53.144;18.134;2024-02-28T05:00:11;101178.21;;;5.02;100.00
76598;BME280;65486;53.144;18.134;2024-02-28T05:02:41;101175.36;;;5.03;100.00
76598;BME280;65486;53.144;18.134;2024-02-28T05:05:08;101173.59;;;5.04;100.00
76598;BME280;65486;53.144;18.134;2024-02-28T05:07:35;101171.75;;;5.03;100.00
76598;BME280;65486;53.144;18.134;2024-02-28T05:10:01;101177.04;;;5.07;100.00
76598;BME280;65486;53.144;18.134;2024-02-28T05:12:27;101181.29;;;5.08;100.00
76598;BME280;65486;53.144;18.134;2024-02-28T05:14:56;101184.60;;;5.09;100.00
76598;BME280;65486;53.144;18.134;2024-02-28T05:17:24;101183.41;;;5.09;100.00
76598;BME280;65486;53.144;18.134;2024-02-28T05:19:54;101185.79;;;5.08;100.00
76598;BME280;65486;53.144;18.134;2024-02-28T05:22:24;101189.64;;;5.07;100.00
76598;BME280;65486;53.144;18.134;2024-02-28T05:24:50;101189.85;;;5.05;100.00
76598;BME280;65486;53.144;18.134;2024-02-28T05:27:19;101187.11;;;5.03;100.00
76598;BME280;65486;53.144;18.134;2024-02-28T05:29:47;101191.39;;;5.03;100.00
76598;BME280;65486;53.144;18.134;2024-02-28T05:32:14;101195.42;;;5.03;100.00
76598;BME280;65486;53.144;18.134;2024-02-28T05:34:45;101194.02;;;5.02;100.00
76598;BME280;65486;53.144;18.134;2024-02-28T05:37:12;101156.12;;;4.79;100.00
76598;BME280;65486;53.144;18.134;2024-02-28T05:39:43;101195.34;;;5.02;100.00
76598;BME280;65486;53.144;18.134;2024-02-28T05:42:12;101194.20;;;5.02;100.00
76598;BME280;65486;53.144;18.134;2024-02-28T05:44:45;101198.91;;;5.02;100.00
76598;BME280;65486;53.144;18.134;2024-02-28T05:47:18;101196.73;;;5.02;100.00
76598;BME280;65486;53.144;18.134;2024-02-28T05:49:46;101196.85;;;5.03;100.00
76598;BME280;65486;53.144;18.134;2024-02-28T05:52:14;101195.58;;;5.01;100.00
76598;BME280;65486;53.144;18.134;2024-02-28T05:54:41;101196.43;;;5.00;100.00
76598;BME280;65486;53.144;18.134;2024-02-28T05:57:10;101194.62;;;4.99;100.00
76598;BME280;65486;53.144;18.134;2024-02-28T05:59:37;101202.77;;;4.97;100.00
76598;BME280;65486;53.144;18.134;2024-02-28T06:02:03;101209.95;;;4.97;100.00
76598;BME280;65486;53.144;18.134;2024-02-28T06:04:31;101213.98;;;4.97;100.00
76598;BME280;65486;53.144;18.134;2024-02-28T06:06:58;101216.70;;;4.97;100.00
76598;BME280;65486;53.144;18.134;2024-02-28T06:09:28;101220.63;;;4.98;100.00
76598;BME280;65486;53.144;18.134;2024-02-28T06:11:56;101227.73;;;4.98;100.00
76598;BME280;65486;53.144;18.134;2024-02-28T06:14:24;101229.19;;;4.99;100.00
76598;BME280;65486;53.144;18.134;2024-02-28T06:16:51;101226.94;;;5.01;100.00
76598;BME280;65486;53.144;18.134;2024-02-28T06:19:20;101225.11;;;5.04;100.00
76598;BME280;65486;53.144;18.134;2024-02-28T06:21:47;101230.00;;;5.06;100.00
76598;BME280;65486;53.144;18.134;2024-02-28T06:24:15;101235.62;;;5.08;100.00
76598;BME280;65486;53.144;18.134;2024-02-28T06:26:47;101236.53;;;5.09;100.00
76598;BME280;65486;53.144;18.134;2024-02-28T06:29:13;101238.13;;;5.08;100.00
76598;BME280;65486;53.144;18.134;2024-02-28T06:31:43;101242.14;;;5.08;100.00
76598;BME280;65486;53.144;18.134;2024-02-28T06:34:11;101244.84;;;5.09;100.00
76598;BME280;65486;53.144;18.134;2024-02-28T06:36:39;101243.79;;;5.11;100.00
76598;BME280;65486;53.144;18.134;2024-02-28T06:39:06;101249.23;;;5.13;100.00
76598;BME280;65486;53.144;18.134;2024-02-28T06:41:32;101245.40;;;5.15;100.00
76598;BME280;65486;53.144;18.134;2024-02-28T06:43:59;101244.14;;;5.17;100.00
76598;BME280;65486;53.144;18.134;2024-02-28T06:46:26;101243.20;;;5.19;100.00
76598;BME280;65486;53.144;18.134;2024-02-28T06:48:52;101254.23;;;5.19;100.00
76598;BME280;65486;53.144;18.134;2024-02-28T06:51:19;101249.85;;;5.15;100.00
76598;BME280;65486;53.144;18.134;2024-02-28T06:53:45;101263.95;;;5.22;100.00
76598;BME280;65486;53.144;18.134;2024-02-28T06:56:12;101272.49;;;5.22;100.00
76598;BME280;65486;53.144;18.134;2024-02-28T06:58:39;101272.70;;;5.22;100.00
76598;BME280;65486;53.144;18.134;2024-02-28T07:01:05;101276.21;;;5.21;100.00
76598;BME280;65486;53.144;18.134;2024-02-28T07:03:31;101271.05;;;5.22;100.00
76598;BME280;65486;53.144;18.134;2024-02-28T07:05:58;101266.75;;;5.21;100.00
76598;BME280;65486;53.144;18.134;2024-02-28T07:08:25;101270.81;;;5.21;100.00
76598;BME280;65486;53.144;18.134;2024-02-28T07:10:51;101271.22;;;5.20;100.00
76598;BME280;65486;53.144;18.134;2024-02-28T07:13:20;101275.94;;;5.21;100.00
76598;BME280;65486;53.144;18.134;2024-02-28T07:15:48;101277.00;;;5.21;100.00
76598;BME280;65486;53.144;18.134;2024-02-28T07:18:15;101275.13;;;5.23;100.00
76598;BME280;65486;53.144;18.134;2024-02-28T07:20:41;101279.41;;;5.25;100.00
76598;BME280;65486;53.144;18.134;2024-02-28T07:23:09;101281.66;;;5.26;100.00
76598;BME280;65486;53.144;18.134;2024-02-28T07:25:35;101281.22;;;5.27;100.00
76598;BME280;65486;53.144;18.134;2024-02-28T07:28:02;101286.20;;;5.26;100.00
76598;BME280;65486;53.144;18.134;2024-02-28T07:30:31;101290.75;;;5.26;100.00
76598;BME280;65486;53.144;18.134;2024-02-28T07:32:59;101292.86;;;5.29;100.00
76598;BME280;65486;53.144;18.134;2024-02-28T07:35:25;101291.08;;;5.30;100.00
76598;BME280;65486;53.144;18.134;2024-02-28T07:37:52;101293.61;;;5.32;100.00
76598;BME280;65486;53.144;18.134;2024-02-28T07:40:18;101293.85;;;5.33;100.00
76598;BME280;65486;53.144;18.134;2024-02-28T07:42:46;101297.17;;;5.35;100.00
76598;BME280;65486;53.144;18.134;2024-02-28T07:45:17;101298.85;;;5.38;100.00
76598;BME280;65486;53.144;18.134;2024-02-28T07:47:44;101292.95;;;5.35;100.00
76598;BME280;65486;53.144;18.134;2024-02-28T07:50:13;101305.82;;;5.46;100.00
76598;BME280;65486;53.144;18.134;2024-02-28T07:52:42;101307.72;;;5.49;100.00
76598;BME280;65486;53.144;18.134;2024-02-28T07:55:08;101304.95;;;5.53;100.00
76598;BME280;65486;53.144;18.134;2024-02-28T07:57:35;101301.14;;;5.57;100.00
76598;BME280;65486;53.144;18.134;2024-02-28T08:00:02;101301.48;;;5.63;100.00
76598;BME280;65486;53.144;18.134;2024-02-28T08:02:38;101300.58;;;5.67;100.00
76598;BME280;65486;53.144;18.134;2024-02-28T08:05:08;101302.30;;;5.71;100.00
76598;BME280;65486;53.144;18.134;2024-02-28T08:07:35;101300.23;;;5.76;100.00
76598;BME280;65486;53.144;18.134;2024-02-28T08:10:05;101302.90;;;5.80;100.00
76598;BME280;65486;53.144;18.134;2024-02-28T08:12:33;101301.13;;;5.82;100.00
76598;BME280;65486;53.144;18.134;2024-02-28T08:15:04;101302.84;;;5.85;100.00
76598;BME280;65486;53.144;18.134;2024-02-28T08:17:33;101302.92;;;5.87;100.00
76598;BME280;65486;53.144;18.134;2024-02-28T08:20:00;101302.96;;;5.89;100.00
76598;BME280;65486;53.144;18.134;2024-02-28T08:22:27;101305.23;;;5.93;100.00
76598;BME280;65486;53.144;18.134;2024-02-28T08:24:54;101301.06;;;5.95;100.00
76598;BME280;65486;53.144;18.134;2024-02-28T08:27:20;101300.69;;;5.97;100.00
76598;BME280;65486;53.144;18.134;2024-02-28T08:29:50;101299.94;;;6.00;100.00
76598;BME280;65486;53.144;18.134;2024-02-28T08:32:19;101296.79;;;6.03;100.00
76598;BME280;65486;53.144;18.134;2024-02-28T08:34:46;101299.96;;;6.05;100.00
76598;BME280;65486;53.144;18.134;2024-02-28T08:37:17;101296.67;;;6.10;100.00
76598;BME280;65486;53.144;18.134;2024-02-28T08:39:44;101293.73;;;6.14;100.00
76598;BME280;65486;53.144;18.134;2024-02-28T08:42:10;101294.39;;;6.20;100.00
76598;BME280;65486;53.144;18.134;2024-02-28T08:44:37;101299.41;;;6.25;100.00
76598;BME280;65486;53.144;18.134;2024-02-28T08:47:03;101304.60;;;6.32;100.00
76598;BME280;65486;53.144;18.134;2024-02-28T08:49:30;101303.26;;;6.38;100.00
76598;BME280;65486;53.144;18.134;2024-02-28T08:51:57;101304.36;;;6.49;100.00
76598;BME280;65486;53.144;18.134;2024-02-28T08:54:24;101305.86;;;6.59;100.00
76598;BME280;65486;53.144;18.134;2024-02-28T08:56:51;101306.51;;;6.67;100.00
76598;BME280;65486;53.144;18.134;2024-02-28T08:59:23;101313.98;;;6.73;100.00
76598;BME280;65486;53.144;18.134;2024-02-28T09:01:51;101319.04;;;6.75;100.00
76598;BME280;65486;53.144;18.134;2024-02-28T09:04:22;101317.64;;;6.78;100.00
76598;BME280;65486;53.144;18.134;2024-02-28T09:06:52;101311.70;;;6.83;100.00
76598;BME280;65486;53.144;18.134;2024-02-28T09:09:21;101317.61;;;6.89;100.00
76598;BME280;65486;53.144;18.134;2024-02-28T09:11:48;101328.94;;;6.92;100.00
76598;BME280;65486;53.144;18.134;2024-02-28T09:14:15;101323.13;;;6.93;100.00
76598;BME280;65486;53.144;18.134;2024-02-28T09:16:42;101317.36;;;6.94;100.00
76598;BME280;65486;53.144;18.134;2024-02-28T09:19:09;101313.23;;;6.95;100.00
76598;BME280;65486;53.144;18.134;2024-02-28T09:21:37;101322.45;;;6.96;100.00
76598;BME280;65486;53.144;18.134;2024-02-28T09:24:03;101328.15;;;6.96;100.00
76598;BME280;65486;53.144;18.134;2024-02-28T09:26:30;101331.70;;;6.99;100.00
76598;BME280;65486;53.144;18.134;2024-02-28T09:28:56;101332.14;;;7.02;100.00
76598;BME280;65486;53.144;18.134;2024-02-28T09:31:24;101334.77;;;7.06;100.00
76598;BME280;65486;53.144;18.134;2024-02-28T09:33:52;101328.55;;;7.07;100.00
76598;BME280;65486;53.144;18.134;2024-02-28T09:36:20;101329.95;;;7.10;100.00
76598;BME280;65486;53.144;18.134;2024-02-28T09:38:47;101332.61;;;7.13;100.00
76598;BME280;65486;53.144;18.134;2024-02-28T09:41:16;101332.94;;;7.17;100.00
76598;BME280;65486;53.144;18.134;2024-02-28T09:43:46;101338.45;;;7.22;100.00
76598;BME280;65486;53.144;18.134;2024-02-28T09:46:13;101337.64;;;7.27;100.00
76598;BME280;65486;53.144;18.134;2024-02-28T09:48:40;101328.57;;;7.30;100.00
76598;BME280;65486;53.144;18.134;2024-02-28T09:51:11;101328.20;;;7.34;100.00
76598;BME280;65486;53.144;18.134;2024-02-28T09:53:39;101332.31;;;7.37;100.00
76598;BME280;65486;53.144;18.134;2024-02-28T09:56:07;101335.52;;;7.41;100.00
76598;BME280;65486;53.144;18.134;2024-02-28T09:58:35;101342.16;;;7.43;100.00
76598;BME280;65486;53.144;18.134;2024-02-28T10:01:10;101348.55;;;7.48;100.00
76598;BME280;65486;53.144;18.134;2024-02-28T10:03:39;101351.64;;;7.51;100.00
76598;BME280;65486;53.144;18.134;2024-02-28T10:06:08;101352.45;;;7.52;100.00
76598;BME280;65486;53.144;18.134;2024-02-28T10:08:35;101355.77;;;7.53;100.00
76598;BME280;65486;53.144;18.134;2024-02-28T10:11:03;101358.94;;;7.54;100.00
76598;BME280;65486;53.144;18.134;2024-02-28T10:13:30;101361.83;;;7.54;100.00
76598;BME280;65486;53.144;18.134;2024-02-28T10:15:56;101363.38;;;7.54;100.00
76598;BME280;65486;53.144;18.134;2024-02-28T10:18:31;101367.64;;;7.53;100.00
76598;BME280;65486;53.144;18.134;2024-02-28T10:20:59;101371.40;;;7.51;100.00
76598;BME280;65486;53.144;18.134;2024-02-28T10:23:26;101371.69;;;7.47;100.00
76598;BME280;65486;53.144;18.134;2024-02-28T10:25:54;101372.13;;;7.47;100.00
76598;BME280;65486;53.144;18.134;2024-02-28T10:28:21;101375.01;;;7.47;100.00
76598;BME280;65486;53.144;18.134;2024-02-28T10:30:50;101375.58;;;7.48;100.00
76598;BME280;65486;53.144;18.134;2024-02-28T10:33:26;101377.88;;;7.52;100.00
76598;BME280;65486;53.144;18.134;2024-02-28T10:35:57;101379.09;;;7.54;100.00
76598;BME280;65486;53.144;18.134;2024-02-28T10:38:27;101380.90;;;7.54;100.00
76598;BME280;65486;53.144;18.134;2024-02-28T10:41:00;101379.26;;;7.55;100.00
76598;BME280;65486;53.144;18.134;2024-02-28T10:43:29;101385.50;;;7.57;100.00
76598;BME280;65486;53.144;18.134;2024-02-28T10:46:02;101388.61;;;7.58;100.00
76598;BME280;65486;53.144;18.134;2024-02-28T10:48:30;101388.45;;;7.59;100.00
76598;BME280;65486;53.144;18.134;2024-02-28T10:50:57;101387.64;;;7.59;100.00
76598;BME280;65486;53.144;18.134;2024-02-28T10:53:39;101384.81;;;7.58;100.00
76598;BME280;65486;53.144;18.134;2024-02-28T10:56:10;101387.43;;;7.56;100.00
76598;BME280;65486;53.144;18.134;2024-02-28T10:58:47;101387.26;;;7.53;100.00
76598;BME280;65486;53.144;18.134;2024-02-28T11:01:18;101385.95;;;7.47;100.00
76598;BME280;65486;53.144;18.134;2024-02-28T11:03:48;101381.55;;;7.44;100.00
76598;BME280;65486;53.144;18.134;2024-02-28T11:06:17;101377.70;;;7.43;100.00
76598;BME280;65486;53.144;18.134;2024-02-28T11:08:46;101383.73;;;7.44;100.00
76598;BME280;65486;53.144;18.134;2024-02-28T11:11:20;101383.48;;;7.45;100.00
76598;BME280;65486;53.144;18.134;2024-02-28T11:13:56;101383.52;;;7.46;100.00
76598;BME280;65486;53.144;18.134;2024-02-28T11:16:33;101382.66;;;7.47;100.00
76598;BME280;65486;53.144;18.134;2024-02-28T11:19:01;101379.70;;;7.50;100.00
76598;BME280;65486;53.144;18.134;2024-02-28T11:21:33;101381.79;;;7.57;100.00
76598;BME280;65486;53.144;18.134;2024-02-28T11:24:02;101383.02;;;7.63;100.00
76598;BME280;65486;53.144;18.134;2024-02-28T11:26:29;101377.91;;;7.69;100.00
76598;BME280;65486;53.144;18.134;2024-02-28T11:28:59;101376.68;;;7.75;100.00
76598;BME280;65486;53.144;18.134;2024-02-28T11:31:26;101381.94;;;7.83;100.00
76598;BME280;65486;53.144;18.134;2024-02-28T11:33:54;101380.89;;;7.86;100.00
76598;BME280;65486;53.144;18.134;2024-02-28T11:36:22;101381.04;;;7.91;100.00
76598;BME280;65486;53.144;18.134;2024-02-28T11:38:50;101381.45;;;7.96;100.00
76598;BME280;65486;53.144;18.134;2024-02-28T11:41:28;101382.27;;;8.01;100.00
76598;BME280;65486;53.144;18.134;2024-02-28T11:43:59;101378.74;;;8.05;100.00
76598;BME280;65486;53.144;18.134;2024-02-28T11:46:25;101382.00;;;8.08;99.98
76598;BME280;65486;53.144;18.134;2024-02-28T11:48:53;101384.11;;;8.09;99.76
76598;BME280;65486;53.144;18.134;2024-02-28T11:51:21;101388.61;;;8.09;99.74
76598;BME280;65486;53.144;18.134;2024-02-28T11:53:48;101386.73;;;8.12;99.98
76598;BME280;65486;53.144;18.134;2024-02-28T11:56:16;101388.71;;;8.14;99.98
76598;BME280;65486;53.144;18.134;2024-02-28T11:58:52;101389.91;;;8.15;99.97
76598;BME280;65486;53.144;18.134;2024-02-28T12:01:31;101390.45;;;8.15;99.66
76598;BME280;65486;53.144;18.134;2024-02-28T12:03:58;101385.90;;;8.13;99.35
76598;BME280;65486;53.144;18.134;2024-02-28T12:06:24;101385.27;;;8.11;99.32
76598;BME280;65486;53.144;18.134;2024-02-28T12:08:52;101388.40;;;8.11;99.27
76598;BME280;65486;53.144;18.134;2024-02-28T12:11:19;101385.16;;;8.12;99.26
76598;BME280;65486;53.144;18.134;2024-02-28T12:13:54;101389.15;;;8.16;99.38
76598;BME280;65486;53.144;18.134;2024-02-28T12:16:42;101393.19;;;8.18;99.25
76598;BME280;65486;53.144;18.134;2024-02-28T12:19:12;101396.06;;;8.20;99.20
76598;BME280;65486;53.144;18.134;2024-02-28T12:21:41;101400.06;;;8.23;98.98
76598;BME280;65486;53.144;18.134;2024-02-28T12:24:10;101398.87;;;8.25;98.80
76598;BME280;65486;53.144;18.134;2024-02-28T12:26:40;101400.41;;;8.29;98.91
76598;BME280;65486;53.144;18.134;2024-02-28T12:29:07;101400.55;;;8.33;99.09
76598;BME280;65486;53.144;18.134;2024-02-28T12:31:37;101400.34;;;8.37;99.07
76598;BME280;65486;53.144;18.134;2024-02-28T12:34:03;101398.79;;;8.41;99.05
76598;BME280;65486;53.144;18.134;2024-02-28T12:36:30;101402.68;;;8.44;98.99
76598;BME280;65486;53.144;18.134;2024-02-28T12:38:58;101402.95;;;8.50;98.87
76598;BME280;65486;53.144;18.134;2024-02-28T12:41:38;101403.11;;;8.51;98.84
76598;BME280;65486;53.144;18.134;2024-02-28T12:44:12;101404.70;;;8.50;98.77
76598;BME280;65486;53.144;18.134;2024-02-28T12:46:39;101406.02;;;8.48;98.84